Tropical Cyclones
[Index]
Main Index Home Page Stock Weather Photos Extreme Storms Discussion Storm News and Storm Chasing Reports Tropical Cyclones / Hurricanes / Typhoons Weather Data and Links Wild Fires / Bushfires Weather Observation Techniques Weather Picture Catalogue Tornado Pictures and Reports Stock Video Footage and DVDs for sale
Season 2019-2020 Tropical Cyclone BELNA Track Map
Season 2019-2020 Summaries (Operational Data): [AU] [SIO] [SPAC] [SH]
<<- Previous TC | 2019-2020 Season | Next TC ->>

click for intensity scale information  Lat/long Grid: Show Hide

 Date Labels: Show Hide

Operational Tropical Cyclone Data

Name: BELNA
Number: 2002

29 Nov 2019 00:00 UTC to 12 Dec 2019 12:00 UTC

    date/time    lat    long     hPa   cat  kts
2019-11-29 00    7.5    51.9    1007         20          
2019-11-29 06    6.9    52.2    1007         20          
2019-11-29 12    6.4    52.3    1007         20          
2019-11-29 18    5.9    56.0    1007         20          
2019-11-30 00    5.9    55.6    1007         20          
2019-11-30 06    5.9    55.1    1007         20          
2019-11-30 12    5.9    54.6    1007         20          
2019-11-30 18    5.8    55.0    1007         20          
2019-12-01 00    5.7    53.7    1007         20          
2019-12-01 06    5.5    54.1    1007         20          
2019-12-01 12    5.4    54.4    1006         20          
2019-12-01 18    5.3    54.5    1007         20          
2019-12-02 00    5.6    54.9    1008         20          
2019-12-02 06    5.7    55.2    1007         25          
2019-12-02 12    6.0    53.6    1005         25          
2019-12-02 18    6.4    53.2    1006         20          
2019-12-03 00    6.3    53.1    1006         20          
2019-12-03 06    6.3    53.0    1007         20          
2019-12-03 12    6.3    52.9    1003         20          
2019-12-03 18    6.3    52.8    1001         25          
2019-12-04 00    6.5    52.0    1004         25          
2019-12-04 06    6.3    51.7    1006         25          
2019-12-04 12    6.5    51.6    1001         30          
2019-12-04 18    6.5    51.5    1004    1    35          
2019-12-05 00    6.6    51.3    1002    1    35          
2019-12-05 06    6.7    50.9     999    1    40          
2019-12-05 12    6.9    50.5     997    1    45          
2019-12-05 18    7.2    49.7     994    2    55          
2019-12-06 00    7.5    49.1     990    2    60          
2019-12-06 06    8.0    48.7     989    3    65          
2019-12-06 12    8.5    48.6     986    3    65          
2019-12-06 18    8.7    48.4     988    3    65          
2019-12-07 00    9.1    47.8     981    3    75          
2019-12-07 06    9.6    47.4     974    3    85          
2019-12-07 12   10.3    47.3     959    4   100          
2019-12-07 18   10.8    47.2     960    4   100          
2019-12-08 00   11.3    46.9     969    4    90          
2019-12-08 06   12.0    46.6     970    4    90          
2019-12-08 12   12.4    46.5     971    3    85          
2019-12-08 18   13.0    46.3     971    3    85          
2019-12-09 00   13.7    46.0     974    3    80          
2019-12-09 06   14.6    45.6     979    3    80          
2019-12-09 12   15.7    45.2     974    3    85          
2019-12-09 18   16.5    44.8     983    3    75          
2019-12-10 00   17.4    44.7     988    3    65          
2019-12-10 06   18.3    44.8     991    2    60          
2019-12-10 12   19.3    44.8     993    2    55          
2019-12-10 18   19.8    45.0    1001    1    45          
2019-12-11 00   20.4    45.1    1006    1    35          
2019-12-11 06   21.0    45.1    1006         30          
2019-12-11 12   21.5    45.1    1006         30          
2019-12-11 18   22.1    48.4    1009         25          
2019-12-12 00   23.6    48.4    1004         25          
2019-12-12 06   24.2    49.6    1007         30          
2019-12-12 12   25.0    51.3    1000         30          
Winds are 10-min average.

Tropical cyclone tracks developed by Michael Bath using operational warnings and advisories and Google Maps.


[Australian Severe Weather index] [Copyright Notice] [Email Contacts] [Search This Site] [Privacy Policy]
Document: tropical_cyclone_belna.htm Updated: 11 March 2020